sensor_id;sensor_type;location;lat;lon;timestamp;pressure;altitude;pressure_sealevel;temperature;humidity
79415;BME280;68864;44.972;19.612;2023-12-20T00:00:20;100823.22;;;5.22;80.62
79415;BME280;68864;44.972;19.612;2023-12-20T00:02:47;100819.31;;;5.23;80.28
79415;BME280;68864;44.972;19.612;2023-12-20T00:05:14;100818.66;;;5.17;80.41
79415;BME280;68864;44.972;19.612;2023-12-20T00:07:42;100808.41;;;5.17;80.20
79415;BME280;68864;44.972;19.612;2023-12-20T00:10:09;100809.72;;;5.20;80.16
79415;BME280;68864;44.972;19.612;2023-12-20T00:12:38;100800.09;;;5.09;81.05
79415;BME280;68864;44.972;19.612;2023-12-20T00:15:06;100803.19;;;5.07;80.80
79415;BME280;68864;44.972;19.612;2023-12-20T00:17:33;100801.72;;;5.10;80.92
79415;BME280;68864;44.972;19.612;2023-12-20T00:20:00;100801.41;;;5.11;80.76
79415;BME280;68864;44.972;19.612;2023-12-20T00:22:27;100798.31;;;5.13;80.36
79415;BME280;68864;44.972;19.612;2023-12-20T00:24:55;100794.72;;;5.12;80.57
79415;BME280;68864;44.972;19.612;2023-12-20T00:27:22;100789.88;;;5.09;80.48
79415;BME280;68864;44.972;19.612;2023-12-20T00:29:49;100794.72;;;5.04;81.94
79415;BME280;68864;44.972;19.612;2023-12-20T00:32:16;100785.63;;;5.03;82.37
79415;BME280;68864;44.972;19.612;2023-12-20T00:34:43;100783.50;;;4.92;82.65
79415;BME280;68864;44.972;19.612;2023-12-20T00:37:10;100779.72;;;4.88;82.49
79415;BME280;68864;44.972;19.612;2023-12-20T00:39:37;100775.69;;;4.85;82.35
79415;BME280;68864;44.972;19.612;2023-12-20T00:42:06;100776.28;;;4.73;83.43
79415;BME280;68864;44.972;19.612;2023-12-20T00:44:33;100776.25;;;4.65;84.14
79415;BME280;68864;44.972;19.612;2023-12-20T00:47:00;100769.09;;;4.64;84.63
79415;BME280;68864;44.972;19.612;2023-12-20T00:49:27;100772.63;;;4.56;84.95
79415;BME280;68864;44.972;19.612;2023-12-20T00:51:54;100762.41;;;4.56;84.32
79415;BME280;68864;44.972;19.612;2023-12-20T00:54:21;100761.25;;;4.49;84.66
79415;BME280;68864;44.972;19.612;2023-12-20T00:56:47;100760.47;;;4.57;84.82
79415;BME280;68864;44.972;19.612;2023-12-20T00:59:16;100756.91;;;4.56;84.38
79415;BME280;68864;44.972;19.612;2023-12-20T01:01:43;100758.84;;;4.56;83.82
79415;BME280;68864;44.972;19.612;2023-12-20T01:04:10;100756.38;;;4.54;83.26
79415;BME280;68864;44.972;19.612;2023-12-20T01:06:37;100752.16;;;4.48;83.58
79415;BME280;68864;44.972;19.612;2023-12-20T01:09:04;100747.75;;;4.47;82.38
79415;BME280;68864;44.972;19.612;2023-12-20T01:11:31;100739.78;;;4.46;81.88
79415;BME280;68864;44.972;19.612;2023-12-20T01:13:58;100742.88;;;4.44;82.54
79415;BME280;68864;44.972;19.612;2023-12-20T01:16:26;100737.38;;;4.44;82.86
79415;BME280;68864;44.972;19.612;2023-12-20T01:18:53;100729.41;;;4.43;82.58
79415;BME280;68864;44.972;19.612;2023-12-20T01:21:20;100738.19;;;4.45;81.41
79415;BME280;68864;44.972;19.612;2023-12-20T01:23:47;100732.66;;;4.45;81.58
79415;BME280;68864;44.972;19.612;2023-12-20T01:26:15;100732.66;;;4.45;81.77
79415;BME280;68864;44.972;19.612;2023-12-20T01:28:42;100725.00;;;4.42;82.07
79415;BME280;68864;44.972;19.612;2023-12-20T01:31:09;100724.38;;;4.45;83.73
79415;BME280;68864;44.972;19.612;2023-12-20T01:33:37;100706.50;;;4.42;83.54
79415;BME280;68864;44.972;19.612;2023-12-20T01:36:04;100724.41;;;4.53;84.32
79415;BME280;68864;44.972;19.612;2023-12-20T01:38:31;100724.59;;;4.57;83.01
79415;BME280;68864;44.972;19.612;2023-12-20T01:40:58;100714.06;;;4.67;84.09
79415;BME280;68864;44.972;19.612;2023-12-20T01:43:25;100714.56;;;4.69;84.05
79415;BME280;68864;44.972;19.612;2023-12-20T01:45:52;100708.25;;;4.77;84.90
79415;BME280;68864;44.972;19.612;2023-12-20T01:48:21;100700.59;;;4.74;85.36
79415;BME280;68864;44.972;19.612;2023-12-20T01:50:51;100692.16;;;4.71;84.51
79415;BME280;68864;44.972;19.612;2023-12-20T01:53:19;100689.53;;;4.66;84.61
79415;BME280;68864;44.972;19.612;2023-12-20T01:55:50;100684.16;;;4.61;84.33
79415;BME280;68864;44.972;19.612;2023-12-20T01:58:19;100687.22;;;4.59;84.23
79415;BME280;68864;44.972;19.612;2023-12-20T02:00:46;100683.31;;;4.43;86.04
79415;BME280;68864;44.972;19.612;2023-12-20T02:03:13;100678.44;;;4.49;85.03
79415;BME280;68864;44.972;19.612;2023-12-20T02:05:40;100670.97;;;4.49;84.89
79415;BME280;68864;44.972;19.612;2023-12-20T02:08:09;100662.69;;;4.49;83.77
79415;BME280;68864;44.972;19.612;2023-12-20T02:10:36;100646.16;;;4.49;84.58
79415;BME280;68864;44.972;19.612;2023-12-20T02:13:04;100650.69;;;4.45;84.83
79415;BME280;68864;44.972;19.612;2023-12-20T02:15:31;100645.66;;;4.38;84.80
79415;BME280;68864;44.972;19.612;2023-12-20T02:17:58;100647.13;;;4.45;84.92
79415;BME280;68864;44.972;19.612;2023-12-20T02:20:25;100631.84;;;4.47;85.23
79415;BME280;68864;44.972;19.612;2023-12-20T02:22:53;100639.34;;;4.55;84.27
79415;BME280;68864;44.972;19.612;2023-12-20T02:25:21;100630.56;;;4.53;84.97
79415;BME280;68864;44.972;19.612;2023-12-20T02:27:48;100617.75;;;4.57;84.08
79415;BME280;68864;44.972;19.612;2023-12-20T02:30:16;100615.31;;;4.56;84.32
79415;BME280;68864;44.972;19.612;2023-12-20T02:32:42;100611.25;;;4.53;84.52
79415;BME280;68864;44.972;19.612;2023-12-20T02:35:09;100611.25;;;4.53;84.31
79415;BME280;68864;44.972;19.612;2023-12-20T02:37:36;100596.16;;;4.51;84.13
79415;BME280;68864;44.972;19.612;2023-12-20T02:40:06;100599.84;;;4.46;83.60
79415;BME280;68864;44.972;19.612;2023-12-20T02:42:33;100604.41;;;4.42;83.48
79415;BME280;68864;44.972;19.612;2023-12-20T02:45:00;100608.63;;;4.39;83.19
79415;BME280;68864;44.972;19.612;2023-12-20T02:47:27;100609.09;;;4.33;83.31
79415;BME280;68864;44.972;19.612;2023-12-20T02:49:55;100603.41;;;4.29;82.93
79415;BME280;68864;44.972;19.612;2023-12-20T02:52:22;100603.56;;;4.24;83.38
79415;BME280;68864;44.972;19.612;2023-12-20T02:54:50;100599.50;;;4.22;82.81
79415;BME280;68864;44.972;19.612;2023-12-20T02:57:18;100602.56;;;4.12;82.76
79415;BME280;68864;44.972;19.612;2023-12-20T02:59:45;100592.13;;;4.00;82.75
79415;BME280;68864;44.972;19.612;2023-12-20T03:02:12;100590.63;;;3.94;82.65
79415;BME280;68864;44.972;19.612;2023-12-20T03:04:39;100580.44;;;3.94;82.16
79415;BME280;68864;44.972;19.612;2023-12-20T03:07:06;100577.34;;;3.96;82.41
79415;BME280;68864;44.972;19.612;2023-12-20T03:09:33;100573.78;;;3.95;81.89
79415;BME280;68864;44.972;19.612;2023-12-20T03:12:00;100570.88;;;3.92;81.89
79415;BME280;68864;44.972;19.612;2023-12-20T03:14:28;100566.59;;;3.86;81.80
79415;BME280;68864;44.972;19.612;2023-12-20T03:16:55;100575.34;;;3.79;81.62
79415;BME280;68864;44.972;19.612;2023-12-20T03:19:22;100564.16;;;3.76;82.07
79415;BME280;68864;44.972;19.612;2023-12-20T03:21:49;100564.97;;;3.76;81.21
79415;BME280;68864;44.972;19.612;2023-12-20T03:24:16;100562.19;;;3.76;81.24
79415;BME280;68864;44.972;19.612;2023-12-20T03:26:43;100561.03;;;3.69;81.13
79415;BME280;68864;44.972;19.612;2023-12-20T03:29:09;100561.19;;;3.64;82.05
79415;BME280;68864;44.972;19.612;2023-12-20T03:31:38;100557.09;;;3.61;81.81
79415;BME280;68864;44.972;19.612;2023-12-20T03:34:05;100559.34;;;3.59;81.55
79415;BME280;68864;44.972;19.612;2023-12-20T03:36:32;100549.66;;;3.62;80.86
79415;BME280;68864;44.972;19.612;2023-12-20T03:38:58;100543.63;;;3.59;81.15
79415;BME280;68864;44.972;19.612;2023-12-20T03:41:25;100535.38;;;3.59;81.54
79415;BME280;68864;44.972;19.612;2023-12-20T03:43:52;100537.66;;;3.57;80.48
79415;BME280;68864;44.972;19.612;2023-12-20T03:46:19;100538.09;;;3.51;81.94
79415;BME280;68864;44.972;19.612;2023-12-20T03:48:47;100535.97;;;3.48;83.33
79415;BME280;68864;44.972;19.612;2023-12-20T03:51:14;100533.97;;;3.40;84.26
79415;BME280;68864;44.972;19.612;2023-12-20T03:53:41;100528.81;;;3.38;84.18
79415;BME280;68864;44.972;19.612;2023-12-20T03:56:08;100528.03;;;3.46;83.22
79415;BME280;68864;44.972;19.612;2023-12-20T03:58:35;100529.47;;;3.44;82.06
79415;BME280;68864;44.972;19.612;2023-12-20T04:01:02;100527.00;;;3.34;83.05
79415;BME280;68864;44.972;19.612;2023-12-20T04:03:29;100524.56;;;3.32;82.28
79415;BME280;68864;44.972;19.612;2023-12-20T04:05:58;100524.88;;;3.31;83.01
79415;BME280;68864;44.972;19.612;2023-12-20T04:08:25;100515.31;;;3.28;82.54
79415;BME280;68864;44.972;19.612;2023-12-20T04:10:51;100519.69;;;3.29;81.94
79415;BME280;68864;44.972;19.612;2023-12-20T04:13:18;100516.63;;;3.31;82.33
79415;BME280;68864;44.972;19.612;2023-12-20T04:15:45;100516.13;;;3.29;81.70
79415;BME280;68864;44.972;19.612;2023-12-20T04:18:13;100512.84;;;3.27;82.31
79415;BME280;68864;44.972;19.612;2023-12-20T04:20:40;100516.25;;;3.24;82.18
79415;BME280;68864;44.972;19.612;2023-12-20T04:23:08;100515.44;;;3.23;82.70
79415;BME280;68864;44.972;19.612;2023-12-20T04:25:35;100506.06;;;3.24;81.39
79415;BME280;68864;44.972;19.612;2023-12-20T04:28:03;100506.50;;;3.17;83.74
79415;BME280;68864;44.972;19.612;2023-12-20T04:30:30;100499.72;;;3.24;82.73
79415;BME280;68864;44.972;19.612;2023-12-20T04:32:57;100497.78;;;3.24;83.09
79415;BME280;68864;44.972;19.612;2023-12-20T04:35:24;100494.84;;;3.20;82.58
79415;BME280;68864;44.972;19.612;2023-12-20T04:37:52;100492.44;;;3.19;82.55
79415;BME280;68864;44.972;19.612;2023-12-20T04:40:20;100489.78;;;3.14;82.30
79415;BME280;68864;44.972;19.612;2023-12-20T04:42:47;100491.06;;;3.08;82.30
79415;BME280;68864;44.972;19.612;2023-12-20T04:45:14;100474.94;;;2.93;82.56
79415;BME280;68864;44.972;19.612;2023-12-20T04:47:42;100494.75;;;3.03;82.49
79415;BME280;68864;44.972;19.612;2023-12-20T04:50:09;100495.56;;;3.04;83.53
79415;BME280;68864;44.972;19.612;2023-12-20T04:52:38;100498.63;;;3.02;82.70
79415;BME280;68864;44.972;19.612;2023-12-20T04:55:06;100495.88;;;3.02;82.62
79415;BME280;68864;44.972;19.612;2023-12-20T04:57:35;100489.88;;;3.00;82.33
79415;BME280;68864;44.972;19.612;2023-12-20T05:00:02;100487.47;;;2.99;81.50
79415;BME280;68864;44.972;19.612;2023-12-20T05:02:30;100488.69;;;2.93;82.17
79415;BME280;68864;44.972;19.612;2023-12-20T05:04:57;100484.34;;;2.92;81.97
79415;BME280;68864;44.972;19.612;2023-12-20T05:07:24;100492.41;;;2.88;81.06
79415;BME280;68864;44.972;19.612;2023-12-20T05:09:51;100496.91;;;2.84;82.13
79415;BME280;68864;44.972;19.612;2023-12-20T05:12:18;100486.81;;;2.79;81.98
79415;BME280;68864;44.972;19.612;2023-12-20T05:14:46;100483.59;;;2.77;82.02
79415;BME280;68864;44.972;19.612;2023-12-20T05:17:13;100488.72;;;2.70;81.78
79415;BME280;68864;44.972;19.612;2023-12-20T05:19:40;100477.72;;;2.70;81.64
79415;BME280;68864;44.972;19.612;2023-12-20T05:22:07;100485.78;;;2.67;81.53
79415;BME280;68864;44.972;19.612;2023-12-20T05:24:34;100479.44;;;2.66;81.43
79415;BME280;68864;44.972;19.612;2023-12-20T05:27:01;100470.41;;;2.66;81.74
79415;BME280;68864;44.972;19.612;2023-12-20T05:29:28;100476.84;;;2.61;82.94
79415;BME280;68864;44.972;19.612;2023-12-20T05:31:58;100478.91;;;2.56;81.93
79415;BME280;68864;44.972;19.612;2023-12-20T05:34:25;100476.91;;;2.48;82.28
79415;BME280;68864;44.972;19.612;2023-12-20T05:36:52;100473.66;;;2.46;82.07
79415;BME280;68864;44.972;19.612;2023-12-20T05:39:19;100468.94;;;2.46;81.75
79415;BME280;68864;44.972;19.612;2023-12-20T05:41:46;100468.16;;;2.46;81.35
79415;BME280;68864;44.972;19.612;2023-12-20T05:44:13;100463.44;;;2.46;81.19
79415;BME280;68864;44.972;19.612;2023-12-20T05:46:40;100469.59;;;2.43;80.70
79415;BME280;68864;44.972;19.612;2023-12-20T05:49:08;100462.91;;;2.35;81.55
79415;BME280;68864;44.972;19.612;2023-12-20T05:51:36;100467.50;;;2.26;81.51
79415;BME280;68864;44.972;19.612;2023-12-20T05:54:03;100470.16;;;2.31;80.89
79415;BME280;68864;44.972;19.612;2023-12-20T05:56:30;100476.63;;;2.35;80.61
79415;BME280;68864;44.972;19.612;2023-12-20T05:58:57;100476.34;;;2.37;80.49
79415;BME280;68864;44.972;19.612;2023-12-20T06:01:24;100474.19;;;2.34;80.37
79415;BME280;68864;44.972;19.612;2023-12-20T06:03:51;100469.75;;;2.24;80.33
79415;BME280;68864;44.972;19.612;2023-12-20T06:06:19;100469.25;;;2.22;80.33
79415;BME280;68864;44.972;19.612;2023-12-20T06:08:46;100472.72;;;2.14;80.25
79415;BME280;68864;44.972;19.612;2023-12-20T06:11:13;100466.13;;;2.15;80.44
79415;BME280;68864;44.972;19.612;2023-12-20T06:13:40;100472.25;;;2.12;80.97
79415;BME280;68864;44.972;19.612;2023-12-20T06:16:07;100469.50;;;2.12;80.87
79415;BME280;68864;44.972;19.612;2023-12-20T06:18:34;100465.59;;;2.13;80.64
79415;BME280;68864;44.972;19.612;2023-12-20T06:21:02;100463.75;;;2.22;79.99
79415;BME280;68864;44.972;19.612;2023-12-20T06:23:30;100463.25;;;2.20;80.90
79415;BME280;68864;44.972;19.612;2023-12-20T06:25:57;100465.13;;;2.33;80.00
79415;BME280;68864;44.972;19.612;2023-12-20T06:28:24;100465.34;;;2.37;79.74
79415;BME280;68864;44.972;19.612;2023-12-20T06:30:51;100471.00;;;2.40;79.88
79415;BME280;68864;44.972;19.612;2023-12-20T06:33:20;100473.31;;;2.47;80.17
79415;BME280;68864;44.972;19.612;2023-12-20T06:35:48;100471.78;;;2.55;79.63
79415;BME280;68864;44.972;19.612;2023-12-20T06:38:14;100477.66;;;2.62;79.18
79415;BME280;68864;44.972;19.612;2023-12-20T06:40:43;100483.91;;;2.76;79.09
79415;BME280;68864;44.972;19.612;2023-12-20T06:43:10;100481.00;;;2.81;79.14
79415;BME280;68864;44.972;19.612;2023-12-20T06:45:37;100484.44;;;2.87;80.32
79415;BME280;68864;44.972;19.612;2023-12-20T06:48:04;100480.25;;;2.89;80.18
79415;BME280;68864;44.972;19.612;2023-12-20T06:50:31;100473.00;;;2.93;81.22
79415;BME280;68864;44.972;19.612;2023-12-20T06:52:58;100473.19;;;2.97;80.91
79415;BME280;68864;44.972;19.612;2023-12-20T06:55:25;100463.16;;;3.01;81.39
79415;BME280;68864;44.972;19.612;2023-12-20T06:57:54;100463.34;;;3.04;81.02
79415;BME280;68864;44.972;19.612;2023-12-20T07:00:21;100461.88;;;3.07;81.23
79415;BME280;68864;44.972;19.612;2023-12-20T07:02:48;100460.59;;;3.04;81.65
79415;BME280;68864;44.972;19.612;2023-12-20T07:05:16;100465.88;;;2.92;83.75
79415;BME280;68864;44.972;19.612;2023-12-20T07:07:45;100462.34;;;3.00;82.05
79415;BME280;68864;44.972;19.612;2023-12-20T07:10:12;100460.25;;;3.06;81.23
79415;BME280;68864;44.972;19.612;2023-12-20T07:12:39;100454.94;;;3.09;81.46
79415;BME280;68864;44.972;19.612;2023-12-20T07:15:09;100451.59;;;3.12;81.37
79415;BME280;68864;44.972;19.612;2023-12-20T07:17:37;100458.38;;;3.15;80.79
79415;BME280;68864;44.972;19.612;2023-12-20T07:20:05;100452.69;;;3.11;80.67
79415;BME280;68864;44.972;19.612;2023-12-20T07:22:35;100446.19;;;3.07;81.36
79415;BME280;68864;44.972;19.612;2023-12-20T07:25:02;100454.00;;;3.14;81.29
79415;BME280;68864;44.972;19.612;2023-12-20T07:27:29;100450.94;;;3.15;80.78
79415;BME280;68864;44.972;19.612;2023-12-20T07:29:56;100451.75;;;3.16;80.32
79415;BME280;68864;44.972;19.612;2023-12-20T07:32:24;100440.56;;;3.12;79.74
79415;BME280;68864;44.972;19.612;2023-12-20T07:34:51;100437.16;;;3.15;79.46
79415;BME280;68864;44.972;19.612;2023-12-20T07:37:19;100436.84;;;3.17;80.26
79415;BME280;68864;44.972;19.612;2023-12-20T07:39:46;100430.06;;;3.23;80.15
79415;BME280;68864;44.972;19.612;2023-12-20T07:42:13;100435.13;;;3.30;79.76
79415;BME280;68864;44.972;19.612;2023-12-20T07:44:40;100430.09;;;3.32;79.50
79415;BME280;68864;44.972;19.612;2023-12-20T07:47:07;100426.69;;;3.35;79.78
79415;BME280;68864;44.972;19.612;2023-12-20T07:49:35;100428.34;;;3.36;79.51
79415;BME280;68864;44.972;19.612;2023-12-20T07:52:02;100429.34;;;3.48;78.30
79415;BME280;68864;44.972;19.612;2023-12-20T07:54:29;100443.16;;;3.57;78.40
79415;BME280;68864;44.972;19.612;2023-12-20T07:56:57;100437.66;;;3.74;76.66
79415;BME280;68864;44.972;19.612;2023-12-20T07:59:24;100427.63;;;3.78;76.05
79415;BME280;68864;44.972;19.612;2023-12-20T08:01:50;100429.56;;;3.86;75.67
79415;BME280;68864;44.972;19.612;2023-12-20T08:04:17;100420.19;;;3.96;74.91
79415;BME280;68864;44.972;19.612;2023-12-20T08:06:46;100427.31;;;4.06;75.10
79415;BME280;68864;44.972;19.612;2023-12-20T08:09:12;100423.44;;;4.07;73.49
79415;BME280;68864;44.972;19.612;2023-12-20T08:11:39;100429.78;;;4.16;72.35
79415;BME280;68864;44.972;19.612;2023-12-20T08:14:06;100426.22;;;4.24;72.50
79415;BME280;68864;44.972;19.612;2023-12-20T08:16:33;100411.75;;;4.27;71.53
79415;BME280;68864;44.972;19.612;2023-12-20T08:19:00;100420.66;;;4.32;72.07
79415;BME280;68864;44.972;19.612;2023-12-20T08:21:27;100420.03;;;4.44;71.44
79415;BME280;68864;44.972;19.612;2023-12-20T08:23:56;100416.47;;;4.35;70.63
79415;BME280;68864;44.972;19.612;2023-12-20T08:26:23;100417.28;;;4.44;71.14
79415;BME280;68864;44.972;19.612;2023-12-20T08:28:50;100416.13;;;4.45;71.42
79415;BME280;68864;44.972;19.612;2023-12-20T08:31:18;100415.78;;;4.47;72.14
79415;BME280;68864;44.972;19.612;2023-12-20T08:33:46;100416.13;;;4.45;72.60
79415;BME280;68864;44.972;19.612;2023-12-20T08:36:13;100409.81;;;4.36;74.07
79415;BME280;68864;44.972;19.612;2023-12-20T08:38:40;100423.59;;;4.36;74.21
79415;BME280;68864;44.972;19.612;2023-12-20T08:41:08;100429.28;;;4.31;73.90
79415;BME280;68864;44.972;19.612;2023-12-20T08:43:35;100429.28;;;4.31;73.06
79415;BME280;68864;44.972;19.612;2023-12-20T08:46:04;100432.19;;;4.43;73.61
79415;BME280;68864;44.972;19.612;2023-12-20T08:48:31;100431.38;;;4.43;72.68
79415;BME280;68864;44.972;19.612;2023-12-20T08:50:58;100425.94;;;4.98;71.19
79415;BME280;68864;44.972;19.612;2023-12-20T08:53:25;100431.75;;;5.43;69.48
79415;BME280;68864;44.972;19.612;2023-12-20T08:55:52;100420.78;;;5.55;69.38
79415;BME280;68864;44.972;19.612;2023-12-20T08:58:20;100416.22;;;5.88;68.37
79415;BME280;68864;44.972;19.612;2023-12-20T09:00:47;100416.06;;;6.47;66.48
79415;BME280;68864;44.972;19.612;2023-12-20T09:03:14;100402.06;;;6.31;67.36
79415;BME280;68864;44.972;19.612;2023-12-20T09:05:41;100411.00;;;6.82;65.38
79415;BME280;68864;44.972;19.612;2023-12-20T09:08:08;100408.28;;;7.18;64.68
79415;BME280;68864;44.972;19.612;2023-12-20T09:10:36;100403.81;;;7.50;63.84
79415;BME280;68864;44.972;19.612;2023-12-20T09:13:03;100399.94;;;8.04;61.78
79415;BME280;68864;44.972;19.612;2023-12-20T09:15:32;100403.00;;;8.82;60.67
79415;BME280;68864;44.972;19.612;2023-12-20T09:17:59;100390.03;;;10.38;56.01
79415;BME280;68864;44.972;19.612;2023-12-20T09:20:26;100402.69;;;12.81;50.04
79415;BME280;68864;44.972;19.612;2023-12-20T09:22:53;100394.00;;;16.66;41.41
79415;BME280;68864;44.972;19.612;2023-12-20T09:25:20;100381.25;;;16.30;41.59
79415;BME280;68864;44.972;19.612;2023-12-20T09:27:48;100389.78;;;18.74;36.48
79415;BME280;68864;44.972;19.612;2023-12-20T09:30:15;100377.00;;;18.62;36.48
79415;BME280;68864;44.972;19.612;2023-12-20T09:32:44;100363.03;;;17.80;37.46
79415;BME280;68864;44.972;19.612;2023-12-20T09:35:11;100383.16;;;16.68;40.56
79415;BME280;68864;44.972;19.612;2023-12-20T09:37:39;100404.13;;;16.39;41.41
79415;BME280;68864;44.972;19.612;2023-12-20T09:40:11;100369.72;;;15.93;42.24
79415;BME280;68864;44.972;19.612;2023-12-20T09:42:43;100376.97;;;15.51;43.10
79415;BME280;68864;44.972;19.612;2023-12-20T09:45:15;100375.38;;;15.57;44.02
79415;BME280;68864;44.972;19.612;2023-12-20T09:47:43;100383.34;;;15.98;41.10
79415;BME280;68864;44.972;19.612;2023-12-20T09:50:10;100380.97;;;15.89;43.13
79415;BME280;68864;44.972;19.612;2023-12-20T09:52:39;100382.59;;;15.16;44.82
79415;BME280;68864;44.972;19.612;2023-12-20T09:55:07;100375.78;;;14.12;45.21
79415;BME280;68864;44.972;19.612;2023-12-20T09:57:35;100371.38;;;10.81;49.68
79415;BME280;68864;44.972;19.612;2023-12-20T10:00:02;100371.13;;;9.58;57.77
79415;BME280;68864;44.972;19.612;2023-12-20T10:02:30;100371.53;;;8.94;59.74
79415;BME280;68864;44.972;19.612;2023-12-20T10:05:00;100379.44;;;8.48;57.75
79415;BME280;68864;44.972;19.612;2023-12-20T10:07:28;100389.50;;;8.01;62.01
79415;BME280;68864;44.972;19.612;2023-12-20T10:09:55;100385.28;;;7.06;64.38
79415;BME280;68864;44.972;19.612;2023-12-20T10:12:22;100381.78;;;6.39;67.06
79415;BME280;68864;44.972;19.612;2023-12-20T10:14:50;100388.50;;;5.68;69.56
79415;BME280;68864;44.972;19.612;2023-12-20T10:17:17;100377.66;;;5.63;70.32
79415;BME280;68864;44.972;19.612;2023-12-20T10:19:44;100375.22;;;5.61;70.68
79415;BME280;68864;44.972;19.612;2023-12-20T10:22:12;100373.72;;;6.14;69.41
79415;BME280;68864;44.972;19.612;2023-12-20T10:24:40;100374.25;;;6.73;66.86
79415;BME280;68864;44.972;19.612;2023-12-20T10:27:08;100359.31;;;6.20;68.65
79415;BME280;68864;44.972;19.612;2023-12-20T10:29:35;100376.25;;;6.19;69.77
79415;BME280;68864;44.972;19.612;2023-12-20T10:32:24;100370.28;;;7.07;67.43
79415;BME280;68864;44.972;19.612;2023-12-20T10:34:51;100364.25;;;7.66;64.70
79415;BME280;68864;44.972;19.612;2023-12-20T10:37:19;100365.00;;;8.03;63.57
79415;BME280;68864;44.972;19.612;2023-12-20T10:39:49;100361.22;;;8.35;63.06
79415;BME280;68864;44.972;19.612;2023-12-20T10:42:18;100363.16;;;8.62;61.93
79415;BME280;68864;44.972;19.612;2023-12-20T10:44:46;100359.75;;;8.69;61.60
79415;BME280;68864;44.972;19.612;2023-12-20T10:47:13;100357.59;;;8.78;61.48
79415;BME280;68864;44.972;19.612;2023-12-20T10:49:40;100355.28;;;8.80;63.04
79415;BME280;68864;44.972;19.612;2023-12-20T10:52:07;100358.19;;;8.84;61.72
79415;BME280;68864;44.972;19.612;2023-12-20T10:54:37;100359.94;;;8.92;62.01
79415;BME280;68864;44.972;19.612;2023-12-20T10:57:05;100350.72;;;8.88;64.63
79415;BME280;68864;44.972;19.612;2023-12-20T10:59:33;100348.47;;;8.93;64.44
79415;BME280;68864;44.972;19.612;2023-12-20T11:02:03;100350.09;;;8.94;64.99
79415;BME280;68864;44.972;19.612;2023-12-20T11:04:37;100359.25;;;8.95;65.26
79415;BME280;68864;44.972;19.612;2023-12-20T11:07:13;100351.78;;;8.99;63.99
79415;BME280;68864;44.972;19.612;2023-12-20T11:09:49;100336.75;;;9.00;64.40
79415;BME280;68864;44.972;19.612;2023-12-20T11:12:25;100343.63;;;9.06;65.25
79415;BME280;68864;44.972;19.612;2023-12-20T11:14:56;100348.78;;;9.04;64.41
79415;BME280;68864;44.972;19.612;2023-12-20T11:17:26;100342.66;;;8.98;64.06
79415;BME280;68864;44.972;19.612;2023-12-20T11:20:08;100342.91;;;8.93;64.34
79415;BME280;68864;44.972;19.612;2023-12-20T11:22:37;100348.91;;;9.11;63.87
79415;BME280;68864;44.972;19.612;2023-12-20T11:25:10;100354.94;;;9.13;63.67
79415;BME280;68864;44.972;19.612;2023-12-20T11:27:41;100355.47;;;9.18;63.84
79415;BME280;68864;44.972;19.612;2023-12-20T11:30:12;100362.47;;;9.28;63.37
79415;BME280;68864;44.972;19.612;2023-12-20T11:32:42;100349.28;;;9.25;63.56
79415;BME280;68864;44.972;19.612;2023-12-20T11:35:19;100353.31;;;9.28;63.80
79415;BME280;68864;44.972;19.612;2023-12-20T11:37:46;100339.94;;;9.33;63.15
79415;BME280;68864;44.972;19.612;2023-12-20T11:40:16;100331.41;;;9.42;63.05
79415;BME280;68864;44.972;19.612;2023-12-20T11:42:44;100336.00;;;9.34;63.54
79415;BME280;68864;44.972;19.612;2023-12-20T11:45:15;100299.25;;;9.09;64.39
79415;BME280;68864;44.972;19.612;2023-12-20T11:47:43;100324.41;;;9.48;63.66
79415;BME280;68864;44.972;19.612;2023-12-20T11:50:11;100316.06;;;9.48;64.36
79415;BME280;68864;44.972;19.612;2023-12-20T11:52:38;100312.19;;;9.52;64.34
79415;BME280;68864;44.972;19.612;2023-12-20T11:55:06;100298.69;;;9.35;64.66
79415;BME280;68864;44.972;19.612;2023-12-20T11:57:35;100294.94;;;9.12;65.84
79415;BME280;68864;44.972;19.612;2023-12-20T12:00:03;100293.53;;;9.02;65.67
79415;BME280;68864;44.972;19.612;2023-12-20T12:02:31;100285.72;;;8.92;65.99
79415;BME280;68864;44.972;19.612;2023-12-20T12:04:59;100288.88;;;8.91;66.03
79415;BME280;68864;44.972;19.612;2023-12-20T12:07:26;100278.22;;;8.77;66.14
79415;BME280;68864;44.972;19.612;2023-12-20T12:09:53;100290.03;;;8.74;65.88
79415;BME280;68864;44.972;19.612;2023-12-20T12:12:20;100284.28;;;8.67;66.00
79415;BME280;68864;44.972;19.612;2023-12-20T12:14:49;100288.84;;;8.59;67.02
79415;BME280;68864;44.972;19.612;2023-12-20T12:17:16;100284.66;;;8.50;66.49
79415;BME280;68864;44.972;19.612;2023-12-20T12:19:43;100283.66;;;8.42;67.74
79415;BME280;68864;44.972;19.612;2023-12-20T12:22:11;100291.16;;;8.42;67.46
79415;BME280;68864;44.972;19.612;2023-12-20T12:24:39;100302.44;;;8.33;68.09
79415;BME280;68864;44.972;19.612;2023-12-20T12:27:07;100309.09;;;8.16;69.44
79415;BME280;68864;44.972;19.612;2023-12-20T12:29:34;100311.81;;;8.01;69.69
79415;BME280;68864;44.972;19.612;2023-12-20T12:32:04;100315.66;;;7.96;70.51
79415;BME280;68864;44.972;19.612;2023-12-20T12:34:31;100321.44;;;7.91;70.59
79415;BME280;68864;44.972;19.612;2023-12-20T12:36:59;100317.41;;;7.88;70.68
79415;BME280;68864;44.972;19.612;2023-12-20T12:39:26;100317.59;;;7.95;69.49
79415;BME280;68864;44.972;19.612;2023-12-20T12:41:55;100316.94;;;7.86;69.89
79415;BME280;68864;44.972;19.612;2023-12-20T12:44:22;100318.13;;;7.73;71.03
79415;BME280;68864;44.972;19.612;2023-12-20T12:46:50;100320.34;;;7.68;71.09
79415;BME280;68864;44.972;19.612;2023-12-20T12:49:20;100330.16;;;7.65;71.40
79415;BME280;68864;44.972;19.612;2023-12-20T12:51:47;100332.63;;;7.54;71.39